sensor_id;sensor_type;location;lat;lon;timestamp;P1;durP1;ratioP1;P2;durP2;ratioP2
46491;SDS011;32206;51.446;6.792;2022-12-26T00:01:06;2.20;;;2.00;;
46491;SDS011;32206;51.446;6.792;2022-12-26T00:03:34;3.85;;;2.17;;
46491;SDS011;32206;51.446;6.792;2022-12-26T00:06:00;3.92;;;2.63;;
46491;SDS011;32206;51.446;6.792;2022-12-26T00:08:25;5.75;;;2.38;;
46491;SDS011;32206;51.446;6.792;2022-12-26T00:10:51;3.22;;;2.17;;
46491;SDS011;32206;51.446;6.792;2022-12-26T00:13:17;2.47;;;2.28;;
46491;SDS011;32206;51.446;6.792;2022-12-26T00:15:42;2.83;;;2.53;;
46491;SDS011;32206;51.446;6.792;2022-12-26T00:18:08;3.33;;;2.92;;
46491;SDS011;32206;51.446;6.792;2022-12-26T00:20:34;1.92;;;1.70;;
46491;SDS011;32206;51.446;6.792;2022-12-26T00:23:00;3.63;;;2.47;;
46491;SDS011;32206;51.446;6.792;2022-12-26T00:25:26;3.85;;;2.67;;
46491;SDS011;32206;51.446;6.792;2022-12-26T00:27:51;2.40;;;1.88;;
46491;SDS011;32206;51.446;6.792;2022-12-26T00:30:17;2.72;;;1.95;;
46491;SDS011;32206;51.446;6.792;2022-12-26T00:32:43;4.07;;;2.13;;
46491;SDS011;32206;51.446;6.792;2022-12-26T00:35:09;2.17;;;1.90;;
46491;SDS011;32206;51.446;6.792;2022-12-26T00:37:34;2.45;;;1.92;;
46491;SDS011;32206;51.446;6.792;2022-12-26T00:40:00;4.07;;;2.10;;
46491;SDS011;32206;51.446;6.792;2022-12-26T00:42:26;2.10;;;2.00;;
46491;SDS011;32206;51.446;6.792;2022-12-26T00:44:51;2.05;;;1.85;;
46491;SDS011;32206;51.446;6.792;2022-12-26T00:47:17;2.40;;;2.00;;
46491;SDS011;32206;51.446;6.792;2022-12-26T00:49:43;3.17;;;2.10;;
46491;SDS011;32206;51.446;6.792;2022-12-26T00:52:08;2.45;;;2.25;;
46491;SDS011;32206;51.446;6.792;2022-12-26T00:54:34;1.90;;;1.80;;
46491;SDS011;32206;51.446;6.792;2022-12-26T00:56:59;2.55;;;1.95;;
46491;SDS011;32206;51.446;6.792;2022-12-26T00:59:25;2.40;;;2.10;;
46491;SDS011;32206;51.446;6.792;2022-12-26T01:01:50;3.05;;;2.53;;
46491;SDS011;32206;51.446;6.792;2022-12-26T01:04:16;2.75;;;2.55;;
46491;SDS011;32206;51.446;6.792;2022-12-26T01:06:42;3.85;;;2.55;;
46491;SDS011;32206;51.446;6.792;2022-12-26T01:09:07;3.55;;;2.20;;
46491;SDS011;32206;51.446;6.792;2022-12-26T01:11:36;3.10;;;2.70;;
46491;SDS011;32206;51.446;6.792;2022-12-26T01:14:05;3.20;;;2.90;;
46491;SDS011;32206;51.446;6.792;2022-12-26T01:16:33;3.55;;;3.00;;
46491;SDS011;32206;51.446;6.792;2022-12-26T01:18:58;3.03;;;2.67;;
46491;SDS011;32206;51.446;6.792;2022-12-26T01:21:24;5.60;;;2.67;;
46491;SDS011;32206;51.446;6.792;2022-12-26T01:23:49;3.38;;;3.08;;
46491;SDS011;32206;51.446;6.792;2022-12-26T01:26:15;3.55;;;2.78;;
46491;SDS011;32206;51.446;6.792;2022-12-26T01:28:47;3.67;;;3.38;;
46491;SDS011;32206;51.446;6.792;2022-12-26T01:31:13;3.83;;;3.22;;
46491;SDS011;32206;51.446;6.792;2022-12-26T01:33:39;2.63;;;2.42;;
46491;SDS011;32206;51.446;6.792;2022-12-26T01:36:04;3.50;;;2.75;;
46491;SDS011;32206;51.446;6.792;2022-12-26T01:38:30;2.58;;;2.35;;
46491;SDS011;32206;51.446;6.792;2022-12-26T01:40:56;3.13;;;2.35;;
46491;SDS011;32206;51.446;6.792;2022-12-26T01:43:47;2.47;;;2.28;;
46491;SDS011;32206;51.446;6.792;2022-12-26T01:48:44;2.25;;;2.05;;
46491;SDS011;32206;51.446;6.792;2022-12-26T01:51:10;1.92;;;1.83;;
46491;SDS011;32206;51.446;6.792;2022-12-26T01:53:47;2.50;;;2.30;;
46491;SDS011;32206;51.446;6.792;2022-12-26T01:56:17;2.05;;;1.95;;
46491;SDS011;32206;51.446;6.792;2022-12-26T01:58:49;3.35;;;1.80;;
46491;SDS011;32206;51.446;6.792;2022-12-26T02:01:23;2.35;;;2.15;;
46491;SDS011;32206;51.446;6.792;2022-12-26T02:03:52;2.42;;;2.20;;
46491;SDS011;32206;51.446;6.792;2022-12-26T02:06:37;1.80;;;1.40;;
46491;SDS011;32206;51.446;6.792;2022-12-26T02:09:02;1.42;;;1.33;;
46491;SDS011;32206;51.446;6.792;2022-12-26T02:11:33;1.52;;;1.42;;
46491;SDS011;32206;51.446;6.792;2022-12-26T02:14:04;2.17;;;1.17;;
46491;SDS011;32206;51.446;6.792;2022-12-26T02:16:31;2.10;;;1.30;;
46491;SDS011;32206;51.446;6.792;2022-12-26T02:18:58;1.17;;;1.08;;
46491;SDS011;32206;51.446;6.792;2022-12-26T02:32:49;2.05;;;1.80;;
46491;SDS011;32206;51.446;6.792;2022-12-26T02:47:32;2.03;;;1.92;;
46491;SDS011;32206;51.446;6.792;2022-12-26T02:50:08;3.22;;;2.40;;
46491;SDS011;32206;51.446;6.792;2022-12-26T02:53:18;2.97;;;2.78;;
46491;SDS011;32206;51.446;6.792;2022-12-26T02:56:23;2.35;;;2.15;;
46491;SDS011;32206;51.446;6.792;2022-12-26T03:02:21;2.30;;;2.15;;
46491;SDS011;32206;51.446;6.792;2022-12-26T03:05:30;2.63;;;2.42;;
46491;SDS011;32206;51.446;6.792;2022-12-26T03:08:24;3.03;;;2.83;;
46491;SDS011;32206;51.446;6.792;2022-12-26T03:11:13;2.92;;;2.63;;
46491;SDS011;32206;51.446;6.792;2022-12-26T03:14:02;3.20;;;2.90;;
46491;SDS011;32206;51.446;6.792;2022-12-26T03:16:36;3.53;;;2.60;;
46491;SDS011;32206;51.446;6.792;2022-12-26T03:19:21;3.28;;;2.55;;
46491;SDS011;32206;51.446;6.792;2022-12-26T03:21:50;2.80;;;2.60;;
46491;SDS011;32206;51.446;6.792;2022-12-26T03:24:16;2.88;;;2.67;;
46491;SDS011;32206;51.446;6.792;2022-12-26T03:26:45;3.20;;;3.00;;
46491;SDS011;32206;51.446;6.792;2022-12-26T03:29:17;3.00;;;2.80;;
46491;SDS011;32206;51.446;6.792;2022-12-26T03:32:05;3.20;;;2.90;;
46491;SDS011;32206;51.446;6.792;2022-12-26T03:34:42;3.00;;;2.80;;
46491;SDS011;32206;51.446;6.792;2022-12-26T03:43:19;3.40;;;3.15;;
46491;SDS011;32206;51.446;6.792;2022-12-26T03:46:28;3.13;;;2.92;;
46491;SDS011;32206;51.446;6.792;2022-12-26T03:49:46;3.85;;;3.55;;
46491;SDS011;32206;51.446;6.792;2022-12-26T03:53:39;3.75;;;3.45;;
46491;SDS011;32206;51.446;6.792;2022-12-26T03:55:52;3.88;;;3.58;;
46491;SDS011;32206;51.446;6.792;2022-12-26T04:01:35;3.95;;;3.40;;
46491;SDS011;32206;51.446;6.792;2022-12-26T04:04:23;4.05;;;3.75;;
46491;SDS011;32206;51.446;6.792;2022-12-26T04:07:11;3.28;;;3.08;;
46491;SDS011;32206;51.446;6.792;2022-12-26T04:10:16;3.70;;;3.40;;
46491;SDS011;32206;51.446;6.792;2022-12-26T04:13:04;3.72;;;3.53;;
46491;SDS011;32206;51.446;6.792;2022-12-26T04:15:55;4.60;;;4.25;;
46491;SDS011;32206;51.446;6.792;2022-12-26T04:18:54;3.60;;;3.40;;
46491;SDS011;32206;51.446;6.792;2022-12-26T04:22:07;4.05;;;3.63;;
46491;SDS011;32206;51.446;6.792;2022-12-26T04:27:53;4.07;;;3.78;;
46491;SDS011;32206;51.446;6.792;2022-12-26T04:30:38;4.55;;;4.07;;
46491;SDS011;32206;51.446;6.792;2022-12-26T04:37:03;4.60;;;4.30;;
46491;SDS011;32206;51.446;6.792;2022-12-26T04:39:41;4.70;;;3.97;;
46491;SDS011;32206;51.446;6.792;2022-12-26T04:42:31;4.82;;;4.32;;
46491;SDS011;32206;51.446;6.792;2022-12-26T04:45:16;5.00;;;4.63;;
46491;SDS011;32206;51.446;6.792;2022-12-26T04:47:43;4.97;;;4.57;;
46491;SDS011;32206;51.446;6.792;2022-12-26T04:50:29;4.55;;;4.15;;
46491;SDS011;32206;51.446;6.792;2022-12-26T04:52:54;4.32;;;4.03;;
46491;SDS011;32206;51.446;6.792;2022-12-26T04:55:24;5.10;;;4.68;;
46491;SDS011;32206;51.446;6.792;2022-12-26T04:57:53;4.47;;;4.18;;
46491;SDS011;32206;51.446;6.792;2022-12-26T05:00:20;4.68;;;4.07;;
46491;SDS011;32206;51.446;6.792;2022-12-26T05:02:48;4.03;;;3.72;;
46491;SDS011;32206;51.446;6.792;2022-12-26T05:05:35;3.78;;;3.50;;
46491;SDS011;32206;51.446;6.792;2022-12-26T05:08:26;3.80;;;3.50;;
46491;SDS011;32206;51.446;6.792;2022-12-26T05:11:12;4.80;;;3.90;;
46491;SDS011;32206;51.446;6.792;2022-12-26T05:13:38;4.57;;;4.07;;
46491;SDS011;32206;51.446;6.792;2022-12-26T05:16:04;4.50;;;4.10;;
46491;SDS011;32206;51.446;6.792;2022-12-26T05:18:49;3.97;;;3.67;;
46491;SDS011;32206;51.446;6.792;2022-12-26T05:21:33;4.97;;;4.57;;
46491;SDS011;32206;51.446;6.792;2022-12-26T05:24:17;5.28;;;4.80;;
46491;SDS011;32206;51.446;6.792;2022-12-26T05:27:12;4.53;;;4.13;;
46491;SDS011;32206;51.446;6.792;2022-12-26T05:29:58;5.38;;;4.93;;
46491;SDS011;32206;51.446;6.792;2022-12-26T05:32:24;5.78;;;4.72;;
46491;SDS011;32206;51.446;6.792;2022-12-26T05:35:08;7.80;;;7.03;;
46491;SDS011;32206;51.446;6.792;2022-12-26T05:37:34;6.35;;;5.75;;
46491;SDS011;32206;51.446;6.792;2022-12-26T05:40:00;8.68;;;7.45;;
46491;SDS011;32206;51.446;6.792;2022-12-26T05:42:26;4.75;;;4.35;;
46491;SDS011;32206;51.446;6.792;2022-12-26T05:44:52;4.10;;;3.80;;
46491;SDS011;32206;51.446;6.792;2022-12-26T05:47:17;4.07;;;3.75;;
46491;SDS011;32206;51.446;6.792;2022-12-26T05:49:43;4.40;;;4.10;;
46491;SDS011;32206;51.446;6.792;2022-12-26T05:52:08;4.43;;;4.13;;
46491;SDS011;32206;51.446;6.792;2022-12-26T05:54:34;4.55;;;4.15;;
46491;SDS011;32206;51.446;6.792;2022-12-26T05:56:59;5.18;;;4.40;;
46491;SDS011;32206;51.446;6.792;2022-12-26T05:59:25;4.25;;;3.95;;
46491;SDS011;32206;51.446;6.792;2022-12-26T06:01:51;4.63;;;4.22;;
46491;SDS011;32206;51.446;6.792;2022-12-26T06:04:17;4.97;;;4.55;;
46491;SDS011;32206;51.446;6.792;2022-12-26T06:06:42;4.65;;;4.25;;
46491;SDS011;32206;51.446;6.792;2022-12-26T06:09:08;9.48;;;6.50;;
46491;SDS011;32206;51.446;6.792;2022-12-26T06:11:34;5.07;;;4.68;;
46491;SDS011;32206;51.446;6.792;2022-12-26T06:13:59;4.95;;;4.18;;
46491;SDS011;32206;51.446;6.792;2022-12-26T06:16:26;4.47;;;3.67;;
46491;SDS011;32206;51.446;6.792;2022-12-26T06:18:52;4.20;;;3.90;;
46491;SDS011;32206;51.446;6.792;2022-12-26T06:21:19;5.53;;;4.88;;
46491;SDS011;32206;51.446;6.792;2022-12-26T06:23:45;4.57;;;3.92;;
46491;SDS011;32206;51.446;6.792;2022-12-26T06:26:12;5.40;;;4.07;;
46491;SDS011;32206;51.446;6.792;2022-12-26T06:28:38;5.55;;;4.10;;
46491;SDS011;32206;51.446;6.792;2022-12-26T06:31:09;6.45;;;4.13;;
46491;SDS011;32206;51.446;6.792;2022-12-26T06:33:44;4.95;;;4.55;;
46491;SDS011;32206;51.446;6.792;2022-12-26T06:36:11;4.22;;;3.92;;
46491;SDS011;32206;51.446;6.792;2022-12-26T06:38:39;4.25;;;3.85;;
46491;SDS011;32206;51.446;6.792;2022-12-26T06:41:05;4.38;;;3.97;;
46491;SDS011;32206;51.446;6.792;2022-12-26T06:43:33;5.20;;;4.15;;
46491;SDS011;32206;51.446;6.792;2022-12-26T06:45:59;4.47;;;3.95;;
46491;SDS011;32206;51.446;6.792;2022-12-26T06:48:26;4.50;;;3.83;;
46491;SDS011;32206;51.446;6.792;2022-12-26T06:50:51;4.05;;;3.75;;
46491;SDS011;32206;51.446;6.792;2022-12-26T06:53:21;4.45;;;4.05;;
46491;SDS011;32206;51.446;6.792;2022-12-26T06:55:48;5.13;;;4.63;;
46491;SDS011;32206;51.446;6.792;2022-12-26T06:58:14;6.03;;;4.75;;
46491;SDS011;32206;51.446;6.792;2022-12-26T07:00:40;4.90;;;4.47;;
46491;SDS011;32206;51.446;6.792;2022-12-26T07:03:06;4.07;;;3.45;;
46491;SDS011;32206;51.446;6.792;2022-12-26T07:05:34;4.43;;;3.30;;
46491;SDS011;32206;51.446;6.792;2022-12-26T07:08:00;3.60;;;3.03;;
46491;SDS011;32206;51.446;6.792;2022-12-26T07:10:26;8.65;;;5.85;;
46491;SDS011;32206;51.446;6.792;2022-12-26T07:12:51;16.15;;;11.63;;
46491;SDS011;32206;51.446;6.792;2022-12-26T07:15:17;3.58;;;3.28;;
46491;SDS011;32206;51.446;6.792;2022-12-26T07:17:43;3.42;;;3.15;;
46491;SDS011;32206;51.446;6.792;2022-12-26T07:20:09;3.70;;;3.30;;
46491;SDS011;32206;51.446;6.792;2022-12-26T07:22:35;3.75;;;3.45;;
46491;SDS011;32206;51.446;6.792;2022-12-26T07:25:01;3.20;;;2.90;;
46491;SDS011;32206;51.446;6.792;2022-12-26T07:27:26;3.53;;;3.00;;
46491;SDS011;32206;51.446;6.792;2022-12-26T07:29:52;2.97;;;2.78;;
46491;SDS011;32206;51.446;6.792;2022-12-26T07:32:18;5.57;;;3.50;;
46491;SDS011;32206;51.446;6.792;2022-12-26T07:34:43;4.00;;;3.60;;
46491;SDS011;32206;51.446;6.792;2022-12-26T07:37:09;5.30;;;4.78;;
46491;SDS011;32206;51.446;6.792;2022-12-26T07:39:34;5.28;;;4.78;;
46491;SDS011;32206;51.446;6.792;2022-12-26T07:42:01;5.75;;;4.45;;
46491;SDS011;32206;51.446;6.792;2022-12-26T07:44:28;6.30;;;4.35;;
46491;SDS011;32206;51.446;6.792;2022-12-26T07:46:55;5.25;;;3.80;;
46491;SDS011;32206;51.446;6.792;2022-12-26T07:49:22;4.50;;;2.97;;
46491;SDS011;32206;51.446;6.792;2022-12-26T07:51:48;5.38;;;3.17;;
46491;SDS011;32206;51.446;6.792;2022-12-26T07:54:14;3.28;;;3.00;;
46491;SDS011;32206;51.446;6.792;2022-12-26T07:56:40;3.17;;;2.97;;
46491;SDS011;32206;51.446;6.792;2022-12-26T07:59:06;2.55;;;2.08;;
46491;SDS011;32206;51.446;6.792;2022-12-26T08:01:32;5.13;;;2.63;;
46491;SDS011;32206;51.446;6.792;2022-12-26T08:03:57;14.07;;;8.38;;
46491;SDS011;32206;51.446;6.792;2022-12-26T08:06:23;9.15;;;3.50;;
46491;SDS011;32206;51.446;6.792;2022-12-26T08:08:50;2.67;;;2.22;;
46491;SDS011;32206;51.446;6.792;2022-12-26T08:11:17;4.40;;;1.95;;
46491;SDS011;32206;51.446;6.792;2022-12-26T08:13:45;5.85;;;2.20;;
46491;SDS011;32206;51.446;6.792;2022-12-26T08:16:11;3.97;;;1.50;;
46491;SDS011;32206;51.446;6.792;2022-12-26T08:18:38;1.63;;;1.52;;
46491;SDS011;32206;51.446;6.792;2022-12-26T08:21:04;3.42;;;1.88;;
46491;SDS011;32206;51.446;6.792;2022-12-26T08:23:29;6.18;;;5.57;;
46491;SDS011;32206;51.446;6.792;2022-12-26T08:25:55;4.15;;;3.60;;
46491;SDS011;32206;51.446;6.792;2022-12-26T08:28:21;4.60;;;4.20;;
46491;SDS011;32206;51.446;6.792;2022-12-26T08:30:46;6.35;;;5.75;;
46491;SDS011;32206;51.446;6.792;2022-12-26T08:33:14;7.05;;;4.18;;
46491;SDS011;32206;51.446;6.792;2022-12-26T08:35:39;2.42;;;1.90;;
46491;SDS011;32206;51.446;6.792;2022-12-26T08:38:05;2.78;;;1.50;;
46491;SDS011;32206;51.446;6.792;2022-12-26T08:40:31;3.60;;;1.67;;
46491;SDS011;32206;51.446;6.792;2022-12-26T08:42:57;4.05;;;2.90;;
46491;SDS011;32206;51.446;6.792;2022-12-26T08:45:23;2.63;;;2.42;;
46491;SDS011;32206;51.446;6.792;2022-12-26T08:47:49;5.50;;;2.13;;
46491;SDS011;32206;51.446;6.792;2022-12-26T08:50:15;1.38;;;1.10;;
46491;SDS011;32206;51.446;6.792;2022-12-26T08:52:41;1.20;;;1.10;;
46491;SDS011;32206;51.446;6.792;2022-12-26T08:55:07;1.20;;;1.10;;
46491;SDS011;32206;51.446;6.792;2022-12-26T08:57:33;1.10;;;1.00;;
46491;SDS011;32206;51.446;6.792;2022-12-26T08:59:59;1.50;;;1.00;;
46491;SDS011;32206;51.446;6.792;2022-12-26T09:02:24;1.33;;;0.90;;
46491;SDS011;32206;51.446;6.792;2022-12-26T09:04:50;2.05;;;0.95;;
46491;SDS011;32206;51.446;6.792;2022-12-26T09:07:16;1.05;;;0.80;;
46491;SDS011;32206;51.446;6.792;2022-12-26T09:09:42;2.25;;;1.00;;
46491;SDS011;32206;51.446;6.792;2022-12-26T09:12:08;1.55;;;0.82;;
46491;SDS011;32206;51.446;6.792;2022-12-26T09:14:34;1.20;;;0.50;;
46491;SDS011;32206;51.446;6.792;2022-12-26T09:16:59;2.78;;;0.80;;
46491;SDS011;32206;51.446;6.792;2022-12-26T09:19:25;2.30;;;0.90;;
46491;SDS011;32206;51.446;6.792;2022-12-26T09:21:54;1.67;;;1.20;;
46491;SDS011;32206;51.446;6.792;2022-12-26T09:24:38;0.85;;;0.57;;
46491;SDS011;32206;51.446;6.792;2022-12-26T09:27:04;1.92;;;0.70;;
46491;SDS011;32206;51.446;6.792;2022-12-26T09:29:29;1.13;;;0.80;;
46491;SDS011;32206;51.446;6.792;2022-12-26T09:31:55;1.98;;;0.60;;
46491;SDS011;32206;51.446;6.792;2022-12-26T09:34:20;3.85;;;0.88;;
46491;SDS011;32206;51.446;6.792;2022-12-26T09:36:46;2.45;;;1.05;;
46491;SDS011;32206;51.446;6.792;2022-12-26T09:39:12;1.00;;;0.70;;
46491;SDS011;32206;51.446;6.792;2022-12-26T09:41:47;0.82;;;0.82;;
46491;SDS011;32206;51.446;6.792;2022-12-26T09:52:17;1.55;;;0.70;;
46491;SDS011;32206;51.446;6.792;2022-12-26T09:54:49;3.25;;;1.10;;
46491;SDS011;32206;51.446;6.792;2022-12-26T09:57:33;1.33;;;0.77;;
46491;SDS011;32206;51.446;6.792;2022-12-26T10:00:05;2.90;;;0.90;;
46491;SDS011;32206;51.446;6.792;2022-12-26T10:02:40;1.10;;;0.40;;
46491;SDS011;32206;51.446;6.792;2022-12-26T10:05:11;1.45;;;0.88;;
46491;SDS011;32206;51.446;6.792;2022-12-26T10:13:33;1.45;;;0.93;;
46491;SDS011;32206;51.446;6.792;2022-12-26T10:16:08;3.10;;;1.13;;
46491;SDS011;32206;51.446;6.792;2022-12-26T10:24:14;1.88;;;0.60;;
46491;SDS011;32206;51.446;6.792;2022-12-26T10:26:44;1.85;;;0.82;;
46491;SDS011;32206;51.446;6.792;2022-12-26T10:29:17;3.97;;;1.40;;
46491;SDS011;32206;51.446;6.792;2022-12-26T10:34:34;4.25;;;1.52;;
46491;SDS011;32206;51.446;6.792;2022-12-26T10:37:11;1.10;;;0.82;;
46491;SDS011;32206;51.446;6.792;2022-12-26T10:40:02;1.50;;;0.60;;
46491;SDS011;32206;51.446;6.792;2022-12-26T10:42:36;1.08;;;0.50;;
46491;SDS011;32206;51.446;6.792;2022-12-26T10:47:51;3.40;;;0.55;;
46491;SDS011;32206;51.446;6.792;2022-12-26T10:52:44;2.55;;;0.60;;
46491;SDS011;32206;51.446;6.792;2022-12-26T10:55:14;1.13;;;0.50;;
46491;SDS011;32206;51.446;6.792;2022-12-26T10:57:43;3.17;;;1.83;;
46491;SDS011;32206;51.446;6.792;2022-12-26T11:00:16;4.43;;;1.92;;
46491;SDS011;32206;51.446;6.792;2022-12-26T11:02:44;4.45;;;0.68;;
46491;SDS011;32206;51.446;6.792;2022-12-26T11:05:13;3.00;;;0.60;;
46491;SDS011;32206;51.446;6.792;2022-12-26T11:07:47;2.08;;;0.55;;
46491;SDS011;32206;51.446;6.792;2022-12-26T11:10:19;2.38;;;0.70;;
46491;SDS011;32206;51.446;6.792;2022-12-26T11:17:48;4.80;;;1.25;;
46491;SDS011;32206;51.446;6.792;2022-12-26T11:22:44;2.83;;;0.70;;
46491;SDS011;32206;51.446;6.792;2022-12-26T11:27:40;4.97;;;0.90;;
46491;SDS011;32206;51.446;6.792;2022-12-26T11:30:22;1.25;;;0.60;;
46491;SDS011;32206;51.446;6.792;2022-12-26T11:35:50;4.00;;;1.00;;
46491;SDS011;32206;51.446;6.792;2022-12-26T11:41:31;3.53;;;1.90;;
46491;SDS011;32206;51.446;6.792;2022-12-26T11:44:02;1.10;;;1.00;;
46491;SDS011;32206;51.446;6.792;2022-12-26T11:46:41;2.85;;;0.80;;
46491;SDS011;32206;51.446;6.792;2022-12-26T11:49:24;2.13;;;0.70;;
46491;SDS011;32206;51.446;6.792;2022-12-26T11:55:01;2.15;;;0.90;;
46491;SDS011;32206;51.446;6.792;2022-12-26T12:00:38;3.20;;;1.27;;
46491;SDS011;32206;51.446;6.792;2022-12-26T12:03:09;3.22;;;0.80;;
46491;SDS011;32206;51.446;6.792;2022-12-26T12:25:15;4.13;;;1.00;;
46491;SDS011;32206;51.446;6.792;2022-12-26T12:27:28;2.60;;;1.02;;
46491;SDS011;32206;51.446;6.792;2022-12-26T12:30:13;4.55;;;0.90;;
46491;SDS011;32206;51.446;6.792;2022-12-26T12:49:15;14.75;;;6.10;;
46491;SDS011;32206;51.446;6.792;2022-12-26T13:02:34;10.65;;;5.80;;
46491;SDS011;32206;51.446;6.792;2022-12-26T13:05:25;9.70;;;4.35;;
46491;SDS011;32206;51.446;6.792;2022-12-26T13:08:13;7.55;;;2.38;;
46491;SDS011;32206;51.446;6.792;2022-12-26T13:10:50;6.63;;;2.58;;
46491;SDS011;32206;51.446;6.792;2022-12-26T13:13:26;6.65;;;2.83;;
46491;SDS011;32206;51.446;6.792;2022-12-26T13:16:07;8.43;;;4.05;;
46491;SDS011;32206;51.446;6.792;2022-12-26T13:18:39;12.93;;;6.93;;
46491;SDS011;32206;51.446;6.792;2022-12-26T13:21:11;10.77;;;3.45;;
46491;SDS011;32206;51.446;6.792;2022-12-26T13:23:43;4.57;;;2.10;;
46491;SDS011;32206;51.446;6.792;2022-12-26T13:26:48;9.18;;;2.88;;
46491;SDS011;32206;51.446;6.792;2022-12-26T13:29:41;5.18;;;2.78;;
46491;SDS011;32206;51.446;6.792;2022-12-26T13:32:28;3.47;;;1.52;;
46491;SDS011;32206;51.446;6.792;2022-12-26T13:34:55;4.68;;;2.58;;
46491;SDS011;32206;51.446;6.792;2022-12-26T13:42:43;5.35;;;1.60;;
46491;SDS011;32206;51.446;6.792;2022-12-26T13:48:44;6.53;;;3.67;;
46491;SDS011;32206;51.446;6.792;2022-12-26T13:51:01;8.70;;;2.90;;
46491;SDS011;32206;51.446;6.792;2022-12-26T13:53:30;7.38;;;3.17;;
46491;SDS011;32206;51.446;6.792;2022-12-26T14:04:23;13.10;;;2.63;;
46491;SDS011;32206;51.446;6.792;2022-12-26T14:07:29;12.95;;;4.18;;
46491;SDS011;32206;51.446;6.792;2022-12-26T14:15:54;13.38;;;4.03;;
46491;SDS011;32206;51.446;6.792;2022-12-26T14:21:30;17.30;;;4.03;;
46491;SDS011;32206;51.446;6.792;2022-12-26T14:32:42;11.75;;;4.60;;
46491;SDS011;32206;51.446;6.792;2022-12-26T14:35:31;15.15;;;5.22;;
46491;SDS011;32206;51.446;6.792;2022-12-26T14:38:18;15.70;;;5.25;;
46491;SDS011;32206;51.446;6.792;2022-12-26T14:41:11;17.00;;;5.45;;
46491;SDS011;32206;51.446;6.792;2022-12-26T14:44:07;11.55;;;3.58;;
46491;SDS011;32206;51.446;6.792;2022-12-26T14:46:55;7.10;;;4.07;;
46491;SDS011;32206;51.446;6.792;2022-12-26T14:52:26;18.67;;;5.97;;
46491;SDS011;32206;51.446;6.792;2022-12-26T14:54:53;11.15;;;4.47;;
46491;SDS011;32206;51.446;6.792;2022-12-26T15:00:23;15.60;;;3.97;;
46491;SDS011;32206;51.446;6.792;2022-12-26T15:03:07;12.52;;;4.20;;
46491;SDS011;32206;51.446;6.792;2022-12-26T15:05:49;14.32;;;6.25;;
46491;SDS011;32206;51.446;6.792;2022-12-26T15:17:25;10.45;;;5.25;;
46491;SDS011;32206;51.446;6.792;2022-12-26T15:30:27;16.35;;;3.67;;
46491;SDS011;32206;51.446;6.792;2022-12-26T15:33:12;11.43;;;3.70;;
46491;SDS011;32206;51.446;6.792;2022-12-26T15:38:45;8.25;;;2.97;;
46491;SDS011;32206;51.446;6.792;2022-12-26T15:44:02;5.85;;;1.90;;
46491;SDS011;32206;51.446;6.792;2022-12-26T15:46:41;9.05;;;1.92;;
46491;SDS011;32206;51.446;6.792;2022-12-26T15:49:27;7.28;;;2.03;;
46491;SDS011;32206;51.446;6.792;2022-12-26T16:02:45;2.63;;;1.00;;
46491;SDS011;32206;51.446;6.792;2022-12-26T16:05:30;3.88;;;1.20;;
46491;SDS011;32206;51.446;6.792;2022-12-26T16:11:24;5.30;;;1.00;;
46491;SDS011;32206;51.446;6.792;2022-12-26T16:14:03;3.30;;;1.10;;
46491;SDS011;32206;51.446;6.792;2022-12-26T16:16:36;6.88;;;2.10;;
46491;SDS011;32206;51.446;6.792;2022-12-26T16:19:22;1.17;;;0.63;;
46491;SDS011;32206;51.446;6.792;2022-12-26T16:21:54;6.40;;;0.77;;
46491;SDS011;32206;51.446;6.792;2022-12-26T16:24:43;1.15;;;0.65;;
46491;SDS011;32206;51.446;6.792;2022-12-26T16:27:13;2.40;;;0.73;;
46491;SDS011;32206;51.446;6.792;2022-12-26T16:29:45;2.42;;;1.10;;
46491;SDS011;32206;51.446;6.792;2022-12-26T16:32:20;1.90;;;0.90;;
46491;SDS011;32206;51.446;6.792;2022-12-26T16:34:47;3.10;;;0.93;;
46491;SDS011;32206;51.446;6.792;2022-12-26T16:37:16;12.73;;;4.93;;
46491;SDS011;32206;51.446;6.792;2022-12-26T16:39:44;10.10;;;3.55;;
46491;SDS011;32206;51.446;6.792;2022-12-26T16:42:29;3.95;;;1.23;;
46491;SDS011;32206;51.446;6.792;2022-12-26T16:44:55;3.38;;;2.53;;
46491;SDS011;32206;51.446;6.792;2022-12-26T16:47:22;5.05;;;1.30;;
46491;SDS011;32206;51.446;6.792;2022-12-26T16:49:48;2.22;;;1.00;;
46491;SDS011;32206;51.446;6.792;2022-12-26T16:55:22;5.00;;;1.40;;
46491;SDS011;32206;51.446;6.792;2022-12-26T16:57:54;1.63;;;0.75;;
46491;SDS011;32206;51.446;6.792;2022-12-26T17:00:22;3.00;;;0.95;;
46491;SDS011;32206;51.446;6.792;2022-12-26T17:02:51;4.63;;;1.10;;
46491;SDS011;32206;51.446;6.792;2022-12-26T17:05:22;6.90;;;1.10;;
46491;SDS011;32206;51.446;6.792;2022-12-26T17:07:54;3.67;;;1.10;;
46491;SDS011;32206;51.446;6.792;2022-12-26T17:10:26;2.85;;;1.02;;
46491;SDS011;32206;51.446;6.792;2022-12-26T17:12:59;2.95;;;1.13;;
46491;SDS011;32206;51.446;6.792;2022-12-26T17:15:31;1.77;;;0.80;;
46491;SDS011;32206;51.446;6.792;2022-12-26T17:18:26;3.63;;;1.02;;
46491;SDS011;32206;51.446;6.792;2022-12-26T17:21:14;7.28;;;1.98;;
46491;SDS011;32206;51.446;6.792;2022-12-26T17:23:42;6.45;;;0.75;;
46491;SDS011;32206;51.446;6.792;2022-12-26T17:26:16;5.07;;;1.20;;
46491;SDS011;32206;51.446;6.792;2022-12-26T17:28:49;8.00;;;1.25;;
46491;SDS011;32206;51.446;6.792;2022-12-26T17:31:17;4.22;;;1.23;;
46491;SDS011;32206;51.446;6.792;2022-12-26T17:33:53;1.92;;;0.90;;
46491;SDS011;32206;51.446;6.792;2022-12-26T17:36:25;5.68;;;1.50;;
46491;SDS011;32206;51.446;6.792;2022-12-26T17:38:54;4.35;;;1.17;;
46491;SDS011;32206;51.446;6.792;2022-12-26T17:41:20;2.83;;;1.05;;
46491;SDS011;32206;51.446;6.792;2022-12-26T17:43:46;1.80;;;0.93;;
46491;SDS011;32206;51.446;6.792;2022-12-26T17:46:14;3.80;;;1.30;;
46491;SDS011;32206;51.446;6.792;2022-12-26T17:48:41;6.32;;;1.00;;
46491;SDS011;32206;51.446;6.792;2022-12-26T17:51:10;1.63;;;1.17;;
46491;SDS011;32206;51.446;6.792;2022-12-26T17:53:40;1.80;;;1.30;;
46491;SDS011;32206;51.446;6.792;2022-12-26T17:56:17;9.18;;;4.72;;
46491;SDS011;32206;51.446;6.792;2022-12-26T17:58:45;10.05;;;4.35;;
46491;SDS011;32206;51.446;6.792;2022-12-26T18:01:11;3.92;;;1.48;;
46491;SDS011;32206;51.446;6.792;2022-12-26T18:03:37;6.60;;;3.03;;
46491;SDS011;32206;51.446;6.792;2022-12-26T18:06:02;4.10;;;2.47;;
46491;SDS011;32206;51.446;6.792;2022-12-26T18:11:05;9.07;;;1.30;;
46491;SDS011;32206;51.446;6.792;2022-12-26T18:13:33;2.90;;;1.13;;
46491;SDS011;32206;51.446;6.792;2022-12-26T18:15:59;5.95;;;1.42;;
46491;SDS011;32206;51.446;6.792;2022-12-26T18:18:33;4.22;;;1.40;;
46491;SDS011;32206;51.446;6.792;2022-12-26T18:21:00;3.40;;;2.22;;
46491;SDS011;32206;51.446;6.792;2022-12-26T18:23:27;3.45;;;1.60;;
46491;SDS011;32206;51.446;6.792;2022-12-26T18:25:54;3.30;;;1.52;;
46491;SDS011;32206;51.446;6.792;2022-12-26T18:28:21;2.97;;;1.45;;
46491;SDS011;32206;51.446;6.792;2022-12-26T18:30:47;7.78;;;1.67;;
46491;SDS011;32206;51.446;6.792;2022-12-26T18:33:13;7.60;;;2.30;;
46491;SDS011;32206;51.446;6.792;2022-12-26T18:35:39;8.55;;;3.05;;
46491;SDS011;32206;51.446;6.792;2022-12-26T18:38:06;7.45;;;3.13;;
46491;SDS011;32206;51.446;6.792;2022-12-26T18:40:37;7.07;;;2.08;;
46491;SDS011;32206;51.446;6.792;2022-12-26T18:43:05;8.95;;;2.67;;
46491;SDS011;32206;51.446;6.792;2022-12-26T18:45:32;9.93;;;3.80;;
46491;SDS011;32206;51.446;6.792;2022-12-26T18:47:59;7.05;;;2.00;;
46491;SDS011;32206;51.446;6.792;2022-12-26T18:50:25;4.13;;;1.80;;
46491;SDS011;32206;51.446;6.792;2022-12-26T18:52:52;10.15;;;2.53;;
46491;SDS011;32206;51.446;6.792;2022-12-26T18:55:17;7.32;;;1.70;;
46491;SDS011;32206;51.446;6.792;2022-12-26T18:57:43;8.23;;;1.67;;
46491;SDS011;32206;51.446;6.792;2022-12-26T19:00:11;3.90;;;1.90;;
46491;SDS011;32206;51.446;6.792;2022-12-26T19:02:38;11.10;;;1.88;;